createdAt,value
2018-11-05T00:00:33.264Z,991.62
2018-11-05T00:01:33.295Z,991.62
2018-11-05T00:02:33.333Z,991.57
2018-11-05T00:03:33.370Z,991.61
2018-11-05T00:04:33.409Z,991.61
2018-11-05T00:05:33.456Z,991.59
2018-11-05T00:06:33.490Z,991.54
2018-11-05T00:07:33.531Z,991.58
2018-11-05T00:08:33.622Z,991.60
2018-11-05T00:09:33.611Z,991.61
2018-11-05T00:10:33.653Z,991.61
2018-11-05T00:11:33.691Z,991.61
2018-11-05T00:12:33.732Z,991.62
2018-11-05T00:13:33.771Z,991.62
2018-11-05T00:14:33.812Z,991.60
2018-11-05T00:15:33.861Z,991.58
2018-11-05T00:16:33.893Z,991.54
2018-11-05T00:17:33.933Z,991.55
2018-11-05T00:18:34.026Z,991.56
2018-11-05T00:19:34.012Z,991.49
2018-11-05T00:20:34.056Z,991.46
2018-11-05T00:21:34.109Z,991.42
2018-11-05T00:22:34.137Z,991.37
2018-11-05T00:23:34.174Z,991.33
2018-11-05T00:24:34.213Z,991.36
2018-11-05T00:25:34.254Z,991.33
2018-11-05T00:26:34.303Z,991.33
2018-11-05T00:27:34.335Z,991.25
2018-11-05T00:28:34.376Z,991.30
2018-11-05T00:29:34.422Z,991.27
2018-11-05T00:30:34.459Z,991.30
2018-11-05T00:31:34.500Z,991.30
2018-11-05T00:32:34.539Z,991.30
2018-11-05T00:33:34.577Z,991.26
2018-11-05T00:34:34.618Z,991.27
2018-11-05T00:35:34.663Z,991.25
2018-11-05T00:36:34.698Z,991.22
2018-11-05T00:37:34.744Z,991.18
2018-11-05T00:38:34.778Z,991.18
2018-11-05T00:39:34.818Z,991.14
2018-11-05T00:40:34.858Z,991.15
2018-11-05T00:41:34.910Z,991.15
2018-11-05T00:42:34.939Z,991.17
2018-11-05T00:43:34.978Z,991.19
2018-11-05T00:44:35.018Z,991.18
2018-11-05T00:45:35.118Z,991.23
2018-11-05T00:46:35.104Z,991.29
2018-11-05T00:47:35.140Z,991.29
2018-11-05T00:48:35.247Z,991.33
2018-11-05T00:49:35.233Z,991.36
2018-11-05T00:50:35.277Z,991.38
2018-11-05T00:51:35.309Z,991.37
2018-11-05T00:52:35.343Z,991.36
2018-11-05T00:53:35.384Z,991.31
2018-11-05T00:54:35.421Z,991.34
2018-11-05T00:55:35.462Z,991.32
2018-11-05T00:56:35.506Z,991.29
2018-11-05T00:57:35.550Z,991.23
2018-11-05T00:58:35.590Z,991.22
2018-11-05T00:59:35.622Z,991.24
2018-11-05T01:00:35.664Z,991.25
2018-11-05T01:01:35.704Z,991.23
2018-11-05T01:02:35.749Z,991.19
2018-11-05T01:03:35.790Z,991.15
2018-11-05T01:04:35.825Z,991.08
2018-11-05T01:05:35.865Z,991.06
2018-11-05T01:06:35.905Z,991.09
2018-11-05T01:07:35.948Z,991.07
2018-11-05T01:08:35.985Z,991.04
2018-11-05T01:09:36.025Z,991.02
2018-11-05T01:10:36.067Z,991.00
2018-11-05T01:11:36.104Z,990.97
2018-11-05T01:12:36.148Z,991.00
2018-11-05T01:13:36.185Z,990.94
2018-11-05T01:14:36.227Z,991.00
2018-11-05T01:15:36.268Z,990.98
2018-11-05T01:16:36.313Z,990.93
2018-11-05T01:17:36.346Z,990.91
2018-11-05T01:18:36.394Z,990.91
2018-11-05T01:19:36.425Z,990.90
2018-11-05T01:20:36.471Z,990.90
2018-11-05T01:21:36.522Z,990.90
2018-11-05T01:22:36.555Z,990.87
2018-11-05T01:23:36.588Z,990.79
2018-11-05T01:24:36.629Z,990.77
2018-11-05T01:25:36.669Z,990.73
2018-11-05T01:26:36.717Z,990.71
2018-11-05T01:27:36.749Z,990.71
2018-11-05T01:28:36.791Z,990.69
2018-11-05T01:29:36.833Z,990.68
2018-11-05T01:30:36.873Z,990.60
2018-11-05T01:31:36.910Z,990.59
2018-11-05T01:32:36.952Z,990.64
2018-11-05T01:33:36.992Z,990.68
2018-11-05T01:34:37.036Z,990.69
2018-11-05T01:35:37.071Z,990.73
2018-11-05T01:36:37.111Z,990.63
2018-11-05T01:37:37.158Z,990.63
2018-11-05T01:38:37.192Z,990.63
2018-11-05T01:39:37.233Z,990.59
2018-11-05T01:40:37.274Z,990.65
2018-11-05T01:41:37.325Z,990.68
2018-11-05T01:42:37.354Z,990.64
2018-11-05T01:43:37.393Z,990.65
2018-11-05T01:44:37.437Z,990.63
2018-11-05T01:45:37.474Z,990.59
2018-11-05T01:46:37.515Z,990.56
2018-11-05T01:47:37.556Z,990.49
2018-11-05T01:48:37.594Z,990.40
2018-11-05T01:49:37.635Z,990.36
2018-11-05T01:50:37.675Z,990.34
2018-11-05T01:51:37.716Z,990.35
2018-11-05T01:52:37.755Z,990.33
2018-11-05T01:53:37.800Z,990.35
2018-11-05T01:54:37.835Z,990.36
2018-11-05T01:55:37.877Z,990.37
2018-11-05T01:56:37.916Z,990.37
2018-11-05T01:57:37.955Z,990.37
2018-11-05T01:58:37.996Z,990.38
2018-11-05T01:59:38.066Z,990.35
2018-11-05T02:00:38.078Z,990.34
2018-11-05T02:01:38.117Z,990.29
2018-11-05T02:02:38.159Z,990.28
2018-11-05T02:03:38.196Z,990.29
2018-11-05T02:04:38.238Z,990.33
2018-11-05T02:05:38.277Z,990.31
2018-11-05T02:06:38.318Z,990.31
2018-11-05T02:07:38.356Z,990.32
2018-11-05T02:08:38.401Z,990.28
2018-11-05T02:09:38.437Z,990.22
2018-11-05T02:10:38.482Z,990.24
2018-11-05T02:11:38.517Z,990.20
2018-11-05T02:12:38.557Z,990.20
2018-11-05T02:13:38.618Z,990.12
2018-11-05T02:14:38.720Z,990.13
2018-11-05T02:15:38.678Z,990.13
2018-11-05T02:16:38.755Z,990.12
2018-11-05T02:17:38.764Z,990.10
2018-11-05T02:18:38.806Z,990.07
2018-11-05T02:19:38.838Z,990.08
2018-11-05T02:20:38.879Z,990.10
2018-11-05T02:21:38.926Z,990.11
2018-11-05T02:22:38.966Z,990.12
2018-11-05T02:23:39.003Z,990.10
2018-11-05T02:24:39.041Z,990.10
2018-11-05T02:25:39.339Z,990.07
2018-11-05T02:26:39.130Z,990.09
2018-11-05T02:27:39.162Z,990.11
2018-11-05T02:28:39.202Z,990.13
2018-11-05T02:29:39.241Z,990.16
2018-11-05T02:30:39.283Z,990.17
2018-11-05T02:31:39.325Z,990.19
2018-11-05T02:32:39.372Z,990.20
2018-11-05T02:33:39.410Z,990.21
2018-11-05T02:34:39.443Z,990.16
2018-11-05T02:35:39.484Z,990.16
2018-11-05T02:36:39.527Z,990.17
2018-11-05T02:37:39.565Z,990.21
2018-11-05T02:38:39.602Z,990.21
2018-11-05T02:39:39.645Z,990.18
2018-11-05T02:40:39.684Z,990.14
2018-11-05T02:41:39.724Z,990.16
2018-11-05T02:42:39.764Z,990.14
2018-11-05T02:43:39.840Z,990.16
2018-11-05T02:44:39.844Z,990.15
2018-11-05T02:45:39.884Z,990.15
2018-11-05T02:46:39.924Z,990.11
2018-11-05T02:47:39.965Z,990.10
2018-11-05T02:48:40.007Z,990.12
2018-11-05T02:49:40.074Z,990.16
2018-11-05T02:50:40.096Z,990.19
2018-11-05T02:51:40.129Z,990.18
2018-11-05T02:52:40.170Z,990.10
2018-11-05T02:53:40.216Z,990.14
2018-11-05T02:54:40.253Z,990.15
2018-11-05T02:55:40.294Z,990.15
2018-11-05T02:56:40.339Z,990.13
2018-11-05T02:57:40.383Z,990.11
2018-11-05T02:58:40.413Z,990.12
2018-11-05T02:59:40.449Z,990.13
2018-11-05T03:00:40.489Z,990.10
2018-11-05T03:01:40.530Z,990.14
2018-11-05T03:02:40.569Z,990.11
2018-11-05T03:03:40.610Z,990.14
2018-11-05T03:04:40.656Z,990.15
2018-11-05T03:05:40.690Z,990.17
2018-11-05T03:06:40.730Z,990.17
2018-11-05T03:07:40.822Z,990.14
2018-11-05T03:08:40.815Z,990.15
2018-11-05T03:09:40.853Z,990.12
2018-11-05T03:10:40.890Z,990.10
2018-11-05T03:11:40.936Z,990.11
2018-11-05T03:12:40.970Z,990.06
2018-11-05T03:13:41.013Z,990.12
2018-11-05T03:14:41.051Z,990.11
2018-11-05T03:15:41.120Z,990.09
2018-11-05T03:16:41.131Z,990.10
2018-11-05T03:17:41.172Z,990.11
2018-11-05T03:18:41.212Z,990.09
2018-11-05T03:19:41.256Z,990.08
2018-11-05T03:20:41.297Z,990.09
2018-11-05T03:21:41.335Z,990.11
2018-11-05T03:22:41.580Z,990.15
2018-11-05T03:23:41.491Z,990.15
2018-11-05T03:24:41.456Z,990.18
2018-11-05T03:25:41.496Z,990.22
2018-11-05T03:26:41.538Z,990.19
2018-11-05T03:27:41.589Z,990.21
2018-11-05T03:28:41.614Z,990.19
2018-11-05T03:29:41.656Z,990.21
2018-11-05T03:30:41.697Z,990.21
2018-11-05T03:31:41.753Z,990.24
2018-11-05T03:32:41.779Z,990.31
2018-11-05T03:33:41.820Z,990.28
2018-11-05T03:34:41.867Z,990.30
2018-11-05T03:35:41.902Z,990.26
2018-11-05T03:36:41.938Z,990.24
2018-11-05T03:37:41.990Z,990.17
2018-11-05T03:38:42.018Z,990.23
2018-11-05T03:39:42.058Z,990.15
2018-11-05T03:40:42.097Z,990.16
2018-11-05T03:41:42.139Z,990.12
2018-11-05T03:42:42.180Z,990.06
2018-11-05T03:43:42.218Z,990.03
2018-11-05T03:44:42.260Z,990.00
2018-11-05T03:45:42.301Z,989.97
2018-11-05T03:46:42.343Z,990.02
2018-11-05T03:47:42.389Z,990.00
2018-11-05T03:48:42.421Z,989.96
2018-11-05T03:49:42.461Z,989.93
2018-11-05T03:50:42.502Z,989.90
2018-11-05T03:51:42.540Z,989.87
2018-11-05T03:52:42.596Z,989.86
2018-11-05T03:53:42.630Z,989.84
2018-11-05T03:54:42.663Z,989.81
2018-11-05T03:55:42.781Z,989.82
2018-11-05T03:56:42.828Z,989.80
2018-11-05T03:57:42.783Z,989.79
2018-11-05T03:58:42.829Z,989.77
2018-11-05T03:59:42.865Z,989.83
2018-11-05T04:00:42.904Z,989.85
2018-11-05T04:01:42.946Z,989.86
2018-11-05T04:02:42.987Z,989.92
2018-11-05T04:03:43.024Z,989.90
2018-11-05T04:04:43.069Z,989.92
2018-11-05T04:05:43.111Z,989.91
2018-11-05T04:06:43.156Z,989.87
2018-11-05T04:07:43.186Z,989.84
2018-11-05T04:08:43.224Z,989.80
2018-11-05T04:09:43.267Z,989.74
2018-11-05T04:10:43.308Z,989.67
2018-11-05T04:11:43.347Z,989.62
2018-11-05T04:12:43.396Z,989.63
2018-11-05T04:13:43.428Z,989.60
2018-11-05T04:14:43.467Z,989.57
2018-11-05T04:15:43.658Z,989.55
2018-11-05T04:16:43.548Z,989.58
2018-11-05T04:17:43.588Z,989.49
2018-11-05T04:18:43.628Z,989.50
2018-11-05T04:19:43.671Z,989.48
2018-11-05T04:20:43.707Z,989.47
2018-11-05T04:21:43.751Z,989.43
2018-11-05T04:22:43.791Z,989.46
2018-11-05T04:23:43.830Z,989.44
2018-11-05T04:24:43.875Z,989.41
2018-11-05T04:25:43.908Z,989.37
2018-11-05T04:26:43.950Z,989.35
2018-11-05T04:27:44.100Z,989.34
2018-11-05T04:28:44.183Z,989.32
2018-11-05T04:29:44.100Z,989.30
2018-11-05T04:30:44.115Z,989.29
2018-11-05T04:31:44.165Z,989.26
2018-11-05T04:32:44.196Z,989.18
2018-11-05T04:33:44.232Z,989.16
2018-11-05T04:34:44.272Z,989.11
2018-11-05T04:35:44.311Z,989.17
2018-11-05T04:36:44.355Z,989.25
2018-11-05T04:37:44.401Z,989.27
2018-11-05T04:38:44.430Z,989.30
2018-11-05T04:39:44.471Z,989.32
2018-11-05T04:40:44.510Z,989.39
2018-11-05T04:41:44.550Z,989.41
2018-11-05T04:42:44.597Z,989.44
2018-11-05T04:43:44.629Z,989.47
2018-11-05T04:44:44.672Z,989.48
2018-11-05T04:45:44.715Z,989.50
2018-11-05T04:46:44.916Z,989.51
2018-11-05T04:47:44.800Z,989.49
2018-11-05T04:48:44.832Z,989.49
2018-11-05T04:49:44.872Z,989.51
2018-11-05T04:50:44.912Z,989.53
2018-11-05T04:51:44.954Z,989.51
2018-11-05T04:52:44.992Z,989.51
2018-11-05T04:53:45.034Z,989.51
2018-11-05T04:54:45.073Z,989.50
2018-11-05T04:55:45.111Z,989.48
2018-11-05T04:56:45.159Z,989.48
2018-11-05T04:57:45.200Z,989.51
2018-11-05T04:58:45.235Z,989.46
2018-11-05T04:59:45.277Z,989.48
2018-11-05T05:00:45.312Z,989.45
2018-11-05T05:01:45.390Z,989.44
2018-11-05T05:02:45.393Z,989.48
2018-11-05T05:03:45.434Z,989.46
2018-11-05T05:04:45.472Z,989.44
2018-11-05T05:05:45.513Z,989.43
2018-11-05T05:06:45.557Z,989.41
2018-11-05T05:07:45.597Z,989.40
2018-11-05T05:08:45.636Z,989.36
2018-11-05T05:09:45.684Z,989.37
2018-11-05T05:10:45.713Z,989.38
2018-11-05T05:11:45.753Z,989.40
2018-11-05T05:12:45.792Z,989.44
2018-11-05T05:13:45.845Z,989.47
2018-11-05T05:14:45.875Z,989.48
2018-11-05T05:15:45.912Z,989.39
2018-11-05T05:16:45.952Z,989.46
2018-11-05T05:17:45.993Z,989.43
2018-11-05T05:18:46.033Z,989.36
2018-11-05T05:19:46.075Z,989.42
2018-11-05T05:20:46.112Z,989.42
2018-11-05T05:21:46.153Z,989.38
2018-11-05T05:22:46.364Z,989.36
2018-11-05T05:23:46.237Z,989.37
2018-11-05T05:24:46.272Z,989.39
2018-11-05T05:25:46.315Z,989.38
2018-11-05T05:26:46.356Z,989.37
2018-11-05T05:27:46.395Z,989.37
2018-11-05T05:28:46.435Z,989.42
2018-11-05T05:29:46.474Z,989.43
2018-11-05T05:30:46.552Z,989.48
2018-11-05T05:31:46.567Z,989.42
2018-11-05T05:32:46.623Z,989.35
2018-11-05T05:33:47.079Z,989.40
2018-11-05T05:34:46.680Z,989.34
2018-11-05T05:35:46.717Z,989.41
2018-11-05T05:36:46.760Z,989.42
2018-11-05T05:37:46.817Z,989.43
2018-11-05T05:38:46.836Z,989.48
2018-11-05T05:39:46.876Z,989.48
2018-11-05T05:40:46.989Z,989.45
2018-11-05T05:41:46.968Z,989.45
2018-11-05T05:42:46.998Z,989.43
2018-11-05T05:43:47.035Z,989.42
2018-11-05T05:44:47.075Z,989.42
2018-11-05T05:45:47.117Z,989.39
2018-11-05T05:46:47.162Z,989.36
2018-11-05T05:47:47.197Z,989.31
2018-11-05T05:48:47.237Z,989.27
2018-11-05T05:49:47.278Z,989.29
2018-11-05T05:50:47.324Z,989.31
2018-11-05T05:51:47.363Z,989.34
2018-11-05T05:52:47.399Z,989.37
2018-11-05T05:53:47.441Z,989.38
2018-11-05T05:54:47.482Z,989.42
2018-11-05T05:55:47.527Z,989.43
2018-11-05T05:56:47.562Z,989.44
2018-11-05T05:57:47.599Z,989.47
2018-11-05T05:58:47.639Z,989.49
2018-11-05T05:59:47.692Z,989.47
2018-11-05T06:00:47.719Z,989.51
2018-11-05T06:01:47.764Z,989.52
2018-11-05T06:02:47.803Z,989.54
2018-11-05T06:03:47.839Z,989.53
2018-11-05T06:04:47.885Z,989.53
2018-11-05T06:05:47.945Z,989.52
2018-11-05T06:06:47.961Z,989.55
2018-11-05T06:07:48.011Z,989.47
2018-11-05T06:08:48.042Z,989.48
2018-11-05T06:09:48.084Z,989.49
2018-11-05T06:10:48.120Z,989.48
2018-11-05T06:11:48.159Z,989.45
2018-11-05T06:12:48.202Z,989.41
2018-11-05T06:13:48.240Z,989.39
2018-11-05T06:14:48.279Z,989.41
2018-11-05T06:15:48.330Z,989.41
2018-11-05T06:16:48.363Z,989.41
2018-11-05T06:17:48.401Z,989.47
2018-11-05T06:18:48.443Z,989.49
2018-11-05T06:19:48.485Z,989.49
2018-11-05T06:20:48.520Z,989.49
2018-11-05T06:21:48.622Z,989.51
2018-11-05T06:22:48.604Z,989.55
2018-11-05T06:23:48.641Z,989.54
2018-11-05T06:24:48.684Z,989.57
2018-11-05T06:25:48.724Z,989.55
2018-11-05T06:26:48.763Z,989.53
2018-11-05T06:27:48.805Z,989.47
2018-11-05T06:28:48.844Z,989.50
2018-11-05T06:29:48.885Z,989.48
2018-11-05T06:30:48.933Z,989.49
2018-11-05T06:31:48.974Z,989.47
2018-11-05T06:32:49.008Z,989.49
2018-11-05T06:33:49.045Z,989.45
2018-11-05T06:34:49.085Z,989.49
2018-11-05T06:35:49.125Z,989.46
2018-11-05T06:36:49.205Z,989.52
2018-11-05T06:37:49.232Z,989.52
2018-11-05T06:38:49.252Z,989.55
2018-11-05T06:39:49.288Z,989.59
2018-11-05T06:40:49.328Z,989.58
2018-11-05T06:41:49.414Z,989.56
2018-11-05T06:42:49.407Z,989.57
2018-11-05T06:43:49.447Z,989.51
2018-11-05T06:44:49.504Z,989.54
2018-11-05T06:45:49.528Z,989.59
2018-11-05T06:46:49.569Z,989.62
2018-11-05T06:47:49.611Z,989.59
2018-11-05T06:48:49.742Z,989.65
2018-11-05T06:49:49.695Z,989.62
2018-11-05T06:50:49.735Z,989.57
2018-11-05T06:51:49.792Z,989.57
2018-11-05T06:52:49.880Z,989.55
2018-11-05T06:53:49.854Z,989.55
2018-11-05T06:54:49.905Z,989.53
2018-11-05T06:55:49.932Z,989.55
2018-11-05T06:56:49.973Z,989.58
2018-11-05T06:57:50.420Z,989.54
2018-11-05T06:58:50.053Z,989.58
2018-11-05T06:59:50.103Z,989.53
2018-11-05T07:00:50.137Z,989.53
2018-11-05T07:01:50.175Z,989.53
2018-11-05T07:02:50.217Z,989.51
2018-11-05T07:03:50.264Z,989.54
2018-11-05T07:04:50.305Z,989.51
2018-11-05T07:05:50.371Z,989.51
2018-11-05T07:06:50.378Z,989.55
2018-11-05T07:07:50.418Z,989.51
2018-11-05T07:08:50.460Z,989.50
2018-11-05T07:09:50.607Z,989.54
2018-11-05T07:10:50.547Z,989.57
2018-11-05T07:11:50.579Z,989.52
2018-11-05T07:12:50.622Z,989.55
2018-11-05T07:13:50.669Z,989.54
2018-11-05T07:14:50.722Z,989.56
2018-11-05T07:15:50.802Z,989.57
2018-11-05T07:16:50.797Z,989.56
2018-11-05T07:17:50.829Z,989.56
2018-11-05T07:18:51.133Z,989.51
2018-11-05T07:19:50.904Z,989.53
2018-11-05T07:20:50.957Z,989.52
2018-11-05T07:21:50.992Z,989.53
2018-11-05T07:22:51.026Z,989.55
2018-11-05T07:23:51.064Z,989.58
2018-11-05T07:24:51.106Z,989.56
2018-11-05T07:25:51.147Z,989.63
2018-11-05T07:26:51.189Z,989.64
2018-11-05T07:27:51.339Z,989.62
2018-11-05T07:28:51.269Z,989.60
2018-11-05T07:29:51.310Z,989.54
2018-11-05T07:30:51.351Z,989.55
2018-11-05T07:31:51.391Z,989.52
2018-11-05T07:32:51.432Z,989.56
2018-11-05T07:33:51.590Z,989.62
2018-11-05T07:34:51.515Z,989.58
2018-11-05T07:35:51.551Z,989.62
2018-11-05T07:36:51.603Z,989.60
2018-11-05T07:37:51.635Z,989.59
2018-11-05T07:38:51.675Z,989.65
2018-11-05T07:39:51.715Z,989.63
2018-11-05T07:40:51.755Z,989.60
2018-11-05T07:41:51.803Z,989.63
2018-11-05T07:42:51.837Z,989.64
2018-11-05T07:43:51.877Z,989.64
2018-11-05T07:44:51.921Z,989.61
2018-11-05T07:45:51.957Z,989.61
2018-11-05T07:46:51.998Z,989.59
2018-11-05T07:47:52.043Z,989.59
2018-11-05T07:48:52.084Z,989.53
2018-11-05T07:49:52.123Z,989.52
2018-11-05T07:50:52.188Z,989.51
2018-11-05T07:51:52.199Z,989.46
2018-11-05T07:52:52.249Z,989.43
2018-11-05T07:53:52.310Z,989.45
2018-11-05T07:54:52.322Z,989.47
2018-11-05T07:55:52.363Z,989.53
2018-11-05T07:56:52.553Z,989.53
2018-11-05T07:57:52.443Z,989.57
2018-11-05T07:58:52.491Z,989.62
2018-11-05T07:59:52.522Z,989.59
2018-11-05T08:00:52.567Z,989.57
2018-11-05T08:01:52.605Z,989.58
2018-11-05T08:02:52.718Z,989.56
2018-11-05T08:03:52.691Z,989.60
2018-11-05T08:04:52.775Z,989.52
2018-11-05T08:05:52.767Z,989.52
2018-11-05T08:06:52.806Z,989.55
2018-11-05T08:07:52.851Z,989.51
2018-11-05T08:08:52.887Z,989.50
2018-11-05T08:09:52.925Z,989.47
2018-11-05T08:10:52.991Z,989.55
2018-11-05T08:11:53.013Z,989.54
2018-11-05T08:12:53.051Z,989.54
2018-11-05T08:13:53.088Z,989.48
2018-11-05T08:14:53.126Z,989.46
2018-11-05T08:15:53.166Z,989.48
2018-11-05T08:16:53.218Z,989.47
2018-11-05T08:17:53.248Z,989.47
2018-11-05T08:18:53.288Z,989.56
2018-11-05T08:19:53.343Z,989.55
2018-11-05T08:20:53.371Z,989.53
2018-11-05T08:21:53.419Z,989.53
2018-11-05T08:22:53.450Z,989.51
2018-11-05T08:23:53.492Z,989.47
2018-11-05T08:24:53.530Z,989.49
2018-11-05T08:25:53.578Z,989.46
2018-11-05T08:26:53.612Z,989.53
2018-11-05T08:27:53.656Z,989.53
2018-11-05T08:28:53.692Z,989.54
2018-11-05T08:29:53.735Z,989.57
2018-11-05T08:30:53.795Z,989.59
2018-11-05T08:31:53.862Z,989.61
2018-11-05T08:32:53.859Z,989.68
2018-11-05T08:33:53.905Z,989.71
2018-11-05T08:34:53.940Z,989.64
2018-11-05T08:35:53.982Z,989.65
2018-11-05T08:36:54.026Z,989.66
2018-11-05T08:37:54.059Z,989.68
2018-11-05T08:38:54.101Z,989.72
2018-11-05T08:39:54.145Z,989.68
2018-11-05T08:40:54.336Z,989.71
2018-11-05T08:41:54.224Z,989.69
2018-11-05T08:42:54.265Z,989.72
2018-11-05T08:43:54.303Z,989.69
2018-11-05T08:44:54.382Z,989.67
2018-11-05T08:45:54.393Z,989.60
2018-11-05T08:46:54.481Z,989.52
2018-11-05T08:47:54.480Z,989.54
2018-11-05T08:48:54.521Z,989.48
2018-11-05T08:49:54.593Z,989.49
2018-11-05T08:50:54.630Z,989.44
2018-11-05T08:51:54.707Z,989.48
2018-11-05T08:52:54.674Z,989.51
2018-11-05T08:53:54.758Z,989.47
2018-11-05T08:54:54.758Z,989.52
2018-11-05T08:55:54.804Z,989.47
2018-11-05T08:56:54.839Z,989.54
2018-11-05T08:57:54.905Z,989.57
2018-11-05T08:58:54.921Z,989.61
2018-11-05T08:59:54.959Z,989.63
2018-11-05T09:00:55.067Z,989.62
2018-11-05T09:01:55.043Z,989.62
2018-11-05T09:02:55.135Z,989.59
2018-11-05T09:03:55.126Z,989.57
2018-11-05T09:04:55.237Z,989.50
2018-11-05T09:05:55.208Z,989.49
2018-11-05T09:06:55.248Z,989.48
2018-11-05T09:07:55.288Z,989.45
2018-11-05T09:08:55.341Z,989.41
2018-11-05T09:09:55.409Z,989.38
2018-11-05T09:10:55.911Z,989.41
2018-11-05T09:11:55.464Z,989.39
2018-11-05T09:12:55.499Z,989.41
2018-11-05T09:13:55.537Z,989.46
2018-11-05T09:14:55.576Z,989.42
2018-11-05T09:15:55.655Z,989.42
2018-11-05T09:16:55.719Z,989.36
2018-11-05T09:17:55.699Z,989.36
2018-11-05T09:18:55.740Z,989.32
2018-11-05T09:19:55.785Z,989.32
2018-11-05T09:20:55.915Z,989.24
2018-11-05T09:21:55.941Z,989.29
2018-11-05T09:22:55.909Z,989.29
2018-11-05T09:23:55.949Z,989.30
2018-11-05T09:24:55.987Z,989.30
2018-11-05T09:25:56.029Z,989.31
2018-11-05T09:26:56.077Z,989.29
2018-11-05T09:27:56.223Z,989.28
2018-11-05T09:28:56.155Z,989.30
2018-11-05T09:29:56.195Z,989.26
2018-11-05T09:30:56.244Z,989.30
2018-11-05T09:31:56.276Z,989.34
2018-11-05T09:32:56.317Z,989.35
2018-11-05T09:33:56.362Z,989.33
2018-11-05T09:34:56.406Z,989.33
2018-11-05T09:35:56.481Z,989.35
2018-11-05T09:36:56.479Z,989.32
2018-11-05T09:37:56.523Z,989.31
2018-11-05T09:38:56.617Z,989.30
2018-11-05T09:39:56.605Z,989.32
2018-11-05T09:40:56.647Z,989.27
2018-11-05T09:41:56.686Z,989.29
2018-11-05T09:42:56.935Z,989.29
2018-11-05T09:43:56.768Z,989.26
2018-11-05T09:44:56.822Z,989.28
2018-11-05T09:45:56.860Z,989.22
2018-11-05T09:46:56.906Z,989.23
2018-11-05T09:47:56.951Z,989.24
2018-11-05T09:48:56.975Z,989.23
2018-11-05T09:49:57.059Z,989.20
2018-11-05T09:50:57.163Z,989.19
2018-11-05T09:51:57.308Z,989.20
2018-11-05T09:52:57.149Z,989.25
2018-11-05T09:53:57.182Z,989.23
2018-11-05T09:54:57.226Z,989.26
2018-11-05T09:55:57.265Z,989.19
2018-11-05T09:56:57.326Z,989.21
2018-11-05T09:57:57.349Z,989.20
2018-11-05T09:58:57.611Z,989.19
2018-11-05T09:59:57.431Z,989.15
2018-11-05T10:00:57.473Z,989.14
2018-11-05T10:01:57.514Z,989.16
2018-11-05T10:02:57.621Z,989.13
2018-11-05T10:03:57.701Z,989.13
2018-11-05T10:04:57.971Z,989.11
2018-11-05T10:05:57.680Z,989.11
2018-11-05T10:06:57.722Z,989.13
2018-11-05T10:07:57.851Z,989.11
2018-11-05T10:08:57.844Z,989.14
2018-11-05T10:09:57.918Z,989.17
2018-11-05T10:10:57.973Z,989.18
2018-11-05T10:11:57.926Z,989.17
2018-11-05T10:12:57.982Z,989.16
2018-11-05T10:13:58.021Z,989.15
2018-11-05T10:14:58.052Z,989.14
2018-11-05T10:15:58.095Z,989.12
2018-11-05T10:16:58.136Z,989.17
2018-11-05T10:17:58.180Z,989.19
2018-11-05T10:18:58.224Z,989.18
2018-11-05T10:19:58.471Z,989.13
2018-11-05T10:20:58.301Z,989.16
2018-11-05T10:21:58.340Z,989.12
2018-11-05T10:22:58.386Z,989.10
2018-11-05T10:23:58.428Z,989.13
2018-11-05T10:24:58.620Z,989.16
2018-11-05T10:25:58.506Z,989.14
2018-11-05T10:26:58.560Z,989.06
2018-11-05T10:27:58.592Z,989.08
2018-11-05T10:28:58.638Z,989.09
2018-11-05T10:29:58.678Z,989.04
2018-11-05T10:30:58.716Z,989.03
2018-11-05T10:31:58.763Z,989.03
2018-11-05T10:32:58.807Z,989.03
2018-11-05T10:33:58.849Z,989.06
2018-11-05T10:34:58.894Z,989.10
2018-11-05T10:35:58.925Z,989.11
2018-11-05T10:36:58.968Z,989.11
2018-11-05T10:37:59.007Z,989.11
2018-11-05T10:38:59.050Z,989.07
2018-11-05T10:39:59.122Z,989.05
2018-11-05T10:40:59.136Z,989.07
2018-11-05T10:41:59.175Z,989.10
2018-11-05T10:42:59.219Z,989.09
2018-11-05T10:43:59.263Z,989.11
2018-11-05T10:44:59.301Z,989.08
2018-11-05T10:45:59.397Z,989.08
2018-11-05T10:46:59.387Z,989.08
2018-11-05T10:47:59.427Z,989.08
2018-11-05T10:48:59.479Z,989.04
2018-11-05T10:49:59.513Z,989.01
2018-11-05T10:50:59.581Z,988.99
2018-11-05T10:51:59.687Z,989.02
2018-11-05T10:52:59.727Z,989.01
2018-11-05T10:53:59.682Z,989.00
2018-11-05T10:54:59.724Z,989.01
2018-11-05T10:55:59.915Z,989.01
2018-11-05T10:56:59.828Z,989.02
2018-11-05T10:57:59.934Z,989.01
2018-11-05T10:58:59.892Z,988.97
2018-11-05T10:59:59.941Z,988.98
2018-11-05T11:00:59.979Z,988.92
2018-11-05T11:02:00.027Z,988.96
2018-11-05T11:03:00.085Z,988.96
2018-11-05T11:04:00.223Z,988.98
2018-11-05T11:05:00.218Z,988.98
2018-11-05T11:06:00.192Z,988.98
2018-11-05T11:07:00.239Z,988.92
2018-11-05T11:08:00.275Z,988.87
2018-11-05T11:09:00.316Z,988.85
2018-11-05T11:10:00.380Z,988.83
2018-11-05T11:11:00.405Z,988.78
2018-11-05T11:12:00.447Z,988.77
2018-11-05T11:13:00.776Z,988.73
2018-11-05T11:14:00.536Z,988.75
2018-11-05T11:15:00.584Z,988.71
2018-11-05T11:16:00.622Z,988.75
2018-11-05T11:17:00.662Z,988.78
2018-11-05T11:18:00.719Z,988.75
2018-11-05T11:19:00.746Z,988.69
2018-11-05T11:20:00.788Z,988.68
2018-11-05T11:21:00.831Z,988.67
2018-11-05T11:22:00.922Z,988.68
2018-11-05T11:23:00.932Z,988.70
2018-11-05T11:24:00.957Z,988.69
2018-11-05T11:25:01.008Z,988.69
2018-11-05T11:26:01.054Z,988.66
2018-11-05T11:27:01.098Z,988.58
2018-11-05T11:28:01.213Z,988.54
2018-11-05T11:29:01.279Z,988.58
2018-11-05T11:30:01.222Z,988.54
2018-11-05T11:31:01.260Z,988.50
2018-11-05T11:32:01.311Z,988.52
2018-11-05T11:33:01.353Z,988.49
2018-11-05T11:34:01.391Z,988.49
2018-11-05T11:35:01.432Z,988.44
2018-11-05T11:36:01.476Z,988.41
2018-11-05T11:37:01.628Z,988.40
2018-11-05T11:38:01.556Z,988.38
2018-11-05T11:39:01.604Z,988.30
2018-11-05T11:40:01.645Z,988.25
2018-11-05T11:41:01.686Z,988.19
2018-11-05T11:42:01.734Z,988.15
2018-11-05T11:43:01.776Z,988.21
2018-11-05T11:44:01.849Z,988.26
2018-11-05T11:45:02.072Z,988.25
2018-11-05T11:46:01.909Z,988.24
2018-11-05T11:47:01.946Z,988.23
2018-11-05T11:48:01.998Z,988.24
2018-11-05T11:49:02.033Z,988.15
2018-11-05T11:50:02.080Z,988.14
2018-11-05T11:51:02.120Z,988.13
2018-11-05T11:52:02.173Z,988.12
2018-11-05T11:53:02.240Z,988.10
2018-11-05T11:54:02.249Z,988.10
2018-11-05T11:55:02.393Z,988.14
2018-11-05T11:56:02.341Z,988.09
2018-11-05T11:57:02.375Z,988.06
2018-11-05T11:58:02.460Z,988.03
2018-11-05T11:59:02.463Z,988.05
2018-11-05T12:00:02.629Z,988.03
2018-11-05T12:01:02.555Z,988.02
2018-11-05T12:02:02.638Z,987.97
2018-11-05T12:03:02.637Z,987.91
2018-11-05T12:04:02.695Z,987.94
2018-11-05T12:05:02.833Z,987.92
2018-11-05T12:06:02.764Z,987.96
2018-11-05T12:07:02.808Z,987.95
2018-11-05T12:08:02.859Z,988.00
2018-11-05T12:09:02.894Z,987.98
2018-11-05T12:10:02.939Z,987.98
2018-11-05T12:11:02.988Z,987.98
2018-11-05T12:12:03.022Z,987.97
2018-11-05T12:13:03.067Z,987.92
2018-11-05T12:14:03.219Z,987.94
2018-11-05T12:15:03.405Z,987.93
2018-11-05T12:16:03.438Z,987.85
2018-11-05T12:17:03.240Z,987.79
2018-11-05T12:18:03.284Z,987.78
2018-11-05T12:19:03.329Z,987.73
2018-11-05T12:20:03.370Z,987.77
2018-11-05T12:21:03.416Z,987.77
2018-11-05T12:22:03.466Z,987.78
2018-11-05T12:23:03.502Z,987.79
2018-11-05T12:24:03.545Z,987.77
2018-11-05T12:25:03.712Z,987.79
2018-11-05T12:26:03.699Z,987.74
2018-11-05T12:27:03.675Z,987.72
2018-11-05T12:28:03.719Z,987.69
2018-11-05T12:29:03.761Z,987.68